Terminal Aerodrome Forecast
Issued by NWS Charleston, WV

Current Version | Previous Version | Text Only | Print | Product List | Glossary Off
Versions: 1 2 3 4 5 6 7 8 9 10 11 12 13 14 15 16 17 18 19 20 21 22 23 24 25 26 27 28

000
FTUS41 KRLX 182100 AAB
TAFCRW
TAF AMD
KCRW 182148Z 1822/1918 29003KT 6SM -SHRA BR BKN015 BKN025
      TEMPO 1822/1824 4SM -SHRA BR
     FM190200 VRB03KT 4SM BR SCT025 BKN040
     FM190500 00000KT 1SM BR BKN002
     FM191300 VRB03KT 4SM BR BKN010
     FM191500 21003KT 5SM BR BKN030=

USA.gov is the U.S. government's official web portal to all federal, state and local government web resources and services.